createdAt,value
2022-11-03T00:09:14.967Z,1028
2022-11-03T00:19:14.901Z,1028
2022-11-03T00:29:14.924Z,1028
2022-11-03T00:39:14.902Z,1028
2022-11-03T00:49:14.923Z,1028
2022-11-03T00:59:14.884Z,1028
2022-11-03T01:09:14.891Z,1028
2022-11-03T01:19:14.873Z,1028
2022-11-03T01:29:14.879Z,1028
2022-11-03T01:39:14.847Z,1027
2022-11-03T01:49:14.881Z,1027
2022-11-03T01:59:14.852Z,1027
2022-11-03T02:09:14.890Z,1027
2022-11-03T02:19:14.829Z,1027
2022-11-03T02:29:14.863Z,1027
2022-11-03T02:39:14.842Z,1027
2022-11-03T02:49:14.859Z,1027
2022-11-03T02:59:14.810Z,1027
2022-11-03T03:09:14.835Z,1027
2022-11-03T03:19:14.804Z,1027
2022-11-03T03:29:14.818Z,1027
2022-11-03T03:39:14.767Z,1027
2022-11-03T03:49:14.810Z,1027
2022-11-03T03:59:14.786Z,1027
2022-11-03T04:09:14.812Z,1027
2022-11-03T04:19:14.772Z,1027
2022-11-03T04:29:14.787Z,1027
2022-11-03T04:39:14.769Z,1027
2022-11-03T04:49:14.894Z,1026
2022-11-03T04:59:14.764Z,1026
2022-11-03T05:09:14.773Z,1026
2022-11-03T05:19:14.714Z,1026
2022-11-03T05:29:14.774Z,1026
2022-11-03T05:39:14.719Z,1026
2022-11-03T05:49:14.751Z,1026
2022-11-03T05:59:14.724Z,1026
2022-11-03T06:09:14.752Z,1026
2022-11-03T06:19:14.731Z,1027
2022-11-03T06:29:14.720Z,1027
2022-11-03T06:39:14.697Z,1027
2022-11-03T06:49:14.730Z,1027
2022-11-03T06:59:14.707Z,1027
2022-11-03T07:09:14.722Z,1026
2022-11-03T07:19:14.690Z,1026
2022-11-03T07:29:14.689Z,1026
2022-11-03T07:39:14.653Z,1026
2022-11-03T07:49:14.694Z,1026
2022-11-03T07:59:14.724Z,1026
2022-11-03T08:09:14.706Z,1026
2022-11-03T08:19:14.683Z,1026
2022-11-03T08:29:14.662Z,1026
2022-11-03T08:39:14.675Z,1026
2022-11-03T08:49:14.670Z,1026
2022-11-03T08:59:14.623Z,1026
2022-11-03T09:19:14.606Z,1024
2022-11-03T09:29:14.668Z,1024
2022-11-03T09:39:14.604Z,1024
2022-11-03T09:49:14.630Z,1024
2022-11-03T09:59:14.610Z,1024
2022-11-03T10:09:14.590Z,1024
2022-11-03T10:19:14.548Z,1023
2022-11-03T10:29:14.654Z,1023
2022-11-03T10:39:14.545Z,1023
2022-11-03T10:49:14.591Z,1023
2022-11-03T10:59:14.558Z,1023
2022-11-03T11:09:14.603Z,1022
2022-11-03T11:19:14.517Z,1022
2022-11-03T11:29:14.551Z,1022
2022-11-03T11:39:14.516Z,1022
2022-11-03T11:49:14.517Z,1022
2022-11-03T11:59:14.503Z,1022
2022-11-03T12:09:14.524Z,1021
2022-11-03T12:19:14.468Z,1021
2022-11-03T12:29:14.507Z,1021
2022-11-03T12:39:14.443Z,1021
2022-11-03T12:49:14.510Z,1021
2022-11-03T12:59:14.430Z,1020
2022-11-03T13:09:14.464Z,1020
2022-11-03T13:19:14.421Z,1020
2022-11-03T13:29:14.432Z,1020
2022-11-03T13:39:14.391Z,1020
2022-11-03T13:59:29.792Z,1020
2022-11-03T14:09:14.429Z,1020
2022-11-03T14:19:14.388Z,1020
2022-11-03T14:29:14.393Z,1020
2022-11-03T14:39:14.389Z,1019
2022-11-03T14:49:14.413Z,1019
2022-11-03T14:59:14.344Z,1019
2022-11-03T15:09:14.423Z,1019
2022-11-03T15:19:14.334Z,1019
2022-11-03T15:29:14.386Z,1019
2022-11-03T15:39:14.347Z,1019
2022-11-03T15:49:14.368Z,1019
2022-11-03T15:59:14.319Z,1019
2022-11-03T16:09:14.342Z,1019
2022-11-03T16:19:14.303Z,1019
2022-11-03T16:29:21.423Z,1019
2022-11-03T16:39:14.278Z,1019
2022-11-03T16:49:14.301Z,1019
2022-11-03T16:59:14.297Z,1018
2022-11-03T17:09:14.303Z,1018
2022-11-03T17:19:14.284Z,1018
2022-11-03T17:29:14.290Z,1018
2022-11-03T17:39:14.321Z,1018
2022-11-03T17:49:14.278Z,1018
2022-11-03T17:59:14.253Z,1018
2022-11-03T18:09:14.277Z,1018
2022-11-03T18:19:14.258Z,1018
2022-11-03T18:29:14.262Z,1018
2022-11-03T18:39:14.241Z,1017
2022-11-03T18:49:14.252Z,1017
2022-11-03T18:59:14.212Z,1017
2022-11-03T19:09:14.232Z,1017
2022-11-03T19:19:14.226Z,1017
2022-11-03T19:29:14.213Z,1017
2022-11-03T19:39:14.198Z,1017
2022-11-03T19:49:14.220Z,1017
2022-11-03T19:59:14.175Z,1016
2022-11-03T20:09:14.263Z,1017
2022-11-03T20:19:14.176Z,1016
2022-11-03T20:29:14.202Z,1016
2022-11-03T20:39:14.159Z,1016
2022-11-03T20:49:14.172Z,1016
2022-11-03T21:09:14.150Z,1016
2022-11-03T21:19:14.140Z,1016
2022-11-03T21:29:16.963Z,1016
2022-11-03T21:39:14.121Z,1015
2022-11-03T21:49:14.159Z,1015
2022-11-03T21:59:14.117Z,1015
2022-11-03T22:09:14.120Z,1015
2022-11-03T22:19:14.109Z,1015
2022-11-03T22:29:14.126Z,1015
2022-11-03T22:39:14.115Z,1015
2022-11-03T22:49:14.157Z,1015
2022-11-03T22:59:14.098Z,1014
2022-11-03T23:09:14.121Z,1014
2022-11-03T23:19:14.095Z,1014
2022-11-03T23:29:14.122Z,1014
2022-11-03T23:39:14.107Z,1014
2022-11-03T23:49:14.110Z,1014
2022-11-03T23:59:14.088Z,1014
